sensor_id;sensor_type;location;lat;lon;timestamp;P1;durP1;ratioP1;P2;durP2;ratioP2
80584;SDS011;70137;56.482;9.154;2024-03-23T00:51:49;20.10;;;3.22;;
80584;SDS011;70137;56.482;9.154;2024-03-23T00:54:15;26.30;;;2.92;;
80584;SDS011;70137;56.482;9.154;2024-03-23T00:56:40;22.67;;;3.25;;
80584;SDS011;70137;56.482;9.154;2024-03-23T00:59:06;25.35;;;3.25;;
80584;SDS011;70137;56.482;9.154;2024-03-23T01:01:31;24.13;;;2.97;;
80584;SDS011;70137;56.482;9.154;2024-03-23T01:03:56;35.72;;;3.08;;
80584;SDS011;70137;56.482;9.154;2024-03-23T01:06:22;22.02;;;3.10;;
80584;SDS011;70137;56.482;9.154;2024-03-23T01:08:47;27.02;;;3.90;;
80584;SDS011;70137;56.482;9.154;2024-03-23T01:11:12;23.85;;;3.17;;
80584;SDS011;70137;56.482;9.154;2024-03-23T01:13:38;27.90;;;3.25;;
80584;SDS011;70137;56.482;9.154;2024-03-23T01:16:03;26.40;;;3.00;;
80584;SDS011;70137;56.482;9.154;2024-03-23T01:18:29;21.00;;;2.80;;
80584;SDS011;70137;56.482;9.154;2024-03-23T01:20:54;25.98;;;3.63;;
80584;SDS011;70137;56.482;9.154;2024-03-23T01:23:19;22.30;;;2.75;;
80584;SDS011;70137;56.482;9.154;2024-03-23T01:25:51;23.27;;;3.38;;
80584;SDS011;70137;56.482;9.154;2024-03-23T01:28:18;24.50;;;3.15;;
80584;SDS011;70137;56.482;9.154;2024-03-23T01:30:43;25.13;;;2.75;;
80584;SDS011;70137;56.482;9.154;2024-03-23T01:33:09;27.42;;;3.40;;
80584;SDS011;70137;56.482;9.154;2024-03-23T01:35:34;23.55;;;3.00;;
80584;SDS011;70137;56.482;9.154;2024-03-23T01:37:59;13.52;;;3.70;;
80584;SDS011;70137;56.482;9.154;2024-03-23T01:40:25;28.90;;;3.63;;
80584;SDS011;70137;56.482;9.154;2024-03-23T01:42:55;22.58;;;3.17;;
80584;SDS011;70137;56.482;9.154;2024-03-23T01:45:28;26.27;;;3.58;;
80584;SDS011;70137;56.482;9.154;2024-03-23T01:47:55;29.75;;;3.53;;
80584;SDS011;70137;56.482;9.154;2024-03-23T01:50:20;22.00;;;3.00;;
80584;SDS011;70137;56.482;9.154;2024-03-23T01:52:46;26.58;;;3.08;;
80584;SDS011;70137;56.482;9.154;2024-03-23T01:55:12;21.15;;;3.00;;
80584;SDS011;70137;56.482;9.154;2024-03-23T01:57:37;27.58;;;3.70;;
80584;SDS011;70137;56.482;9.154;2024-03-23T02:00:03;30.13;;;4.00;;
80584;SDS011;70137;56.482;9.154;2024-03-23T02:02:29;33.15;;;3.83;;
80584;SDS011;70137;56.482;9.154;2024-03-23T02:04:55;22.30;;;3.47;;
80584;SDS011;70137;56.482;9.154;2024-03-23T02:07:20;36.20;;;3.28;;
80584;SDS011;70137;56.482;9.154;2024-03-23T02:09:46;22.20;;;2.63;;
80584;SDS011;70137;56.482;9.154;2024-03-23T02:12:11;21.23;;;2.92;;
80584;SDS011;70137;56.482;9.154;2024-03-23T02:14:36;30.83;;;3.60;;
80584;SDS011;70137;56.482;9.154;2024-03-23T02:17:02;28.48;;;3.75;;
80584;SDS011;70137;56.482;9.154;2024-03-23T02:19:27;27.42;;;2.58;;
80584;SDS011;70137;56.482;9.154;2024-03-23T02:21:52;22.95;;;2.60;;
80584;SDS011;70137;56.482;9.154;2024-03-23T02:24:18;27.33;;;3.28;;
80584;SDS011;70137;56.482;9.154;2024-03-23T02:26:43;25.10;;;2.75;;
80584;SDS011;70137;56.482;9.154;2024-03-23T02:29:08;25.25;;;3.55;;
80584;SDS011;70137;56.482;9.154;2024-03-23T02:31:34;27.48;;;3.17;;
80584;SDS011;70137;56.482;9.154;2024-03-23T02:34:00;30.25;;;3.63;;
80584;SDS011;70137;56.482;9.154;2024-03-23T02:36:26;19.25;;;3.13;;
80584;SDS011;70137;56.482;9.154;2024-03-23T02:38:51;21.15;;;3.13;;
80584;SDS011;70137;56.482;9.154;2024-03-23T02:41:17;21.52;;;3.00;;
80584;SDS011;70137;56.482;9.154;2024-03-23T02:43:48;29.50;;;3.47;;
80584;SDS011;70137;56.482;9.154;2024-03-23T02:46:14;26.88;;;3.28;;
80584;SDS011;70137;56.482;9.154;2024-03-23T02:48:39;32.47;;;4.20;;
80584;SDS011;70137;56.482;9.154;2024-03-23T02:51:05;30.00;;;3.67;;
80584;SDS011;70137;56.482;9.154;2024-03-23T02:53:30;24.92;;;3.63;;
80584;SDS011;70137;56.482;9.154;2024-03-23T02:55:57;27.00;;;3.95;;
80584;SDS011;70137;56.482;9.154;2024-03-23T02:58:23;27.08;;;2.85;;
80584;SDS011;70137;56.482;9.154;2024-03-23T03:00:48;24.95;;;3.30;;
80584;SDS011;70137;56.482;9.154;2024-03-23T03:03:14;26.20;;;2.88;;
80584;SDS011;70137;56.482;9.154;2024-03-23T03:05:39;29.70;;;3.70;;
80584;SDS011;70137;56.482;9.154;2024-03-23T03:08:04;23.23;;;3.50;;
80584;SDS011;70137;56.482;9.154;2024-03-23T03:10:30;19.88;;;3.22;;
80584;SDS011;70137;56.482;9.154;2024-03-23T03:12:57;36.08;;;4.20;;
80584;SDS011;70137;56.482;9.154;2024-03-23T03:15:22;28.63;;;3.28;;
80584;SDS011;70137;56.482;9.154;2024-03-23T03:17:48;17.48;;;2.97;;
80584;SDS011;70137;56.482;9.154;2024-03-23T03:20:13;34.22;;;3.50;;
80584;SDS011;70137;56.482;9.154;2024-03-23T03:22:40;22.20;;;3.17;;
80584;SDS011;70137;56.482;9.154;2024-03-23T03:25:06;26.00;;;3.40;;
80584;SDS011;70137;56.482;9.154;2024-03-23T03:27:32;28.65;;;3.47;;
80584;SDS011;70137;56.482;9.154;2024-03-23T03:29:57;30.13;;;3.30;;
80584;SDS011;70137;56.482;9.154;2024-03-23T03:32:24;20.33;;;2.97;;
80584;SDS011;70137;56.482;9.154;2024-03-23T03:34:49;20.00;;;2.95;;
80584;SDS011;70137;56.482;9.154;2024-03-23T03:37:15;27.58;;;3.35;;
80584;SDS011;70137;56.482;9.154;2024-03-23T03:39:40;29.95;;;3.67;;
80584;SDS011;70137;56.482;9.154;2024-03-23T03:42:05;27.05;;;4.05;;
80584;SDS011;70137;56.482;9.154;2024-03-23T03:44:32;24.73;;;3.28;;
80584;SDS011;70137;56.482;9.154;2024-03-23T03:46:58;18.52;;;2.72;;
80584;SDS011;70137;56.482;9.154;2024-03-23T03:49:23;23.67;;;3.22;;
80584;SDS011;70137;56.482;9.154;2024-03-23T03:51:48;20.52;;;2.97;;
80584;SDS011;70137;56.482;9.154;2024-03-23T03:54:14;30.63;;;3.95;;
80584;SDS011;70137;56.482;9.154;2024-03-23T03:56:39;27.50;;;3.45;;
80584;SDS011;70137;56.482;9.154;2024-03-23T03:59:05;30.33;;;3.55;;
80584;SDS011;70137;56.482;9.154;2024-03-23T04:01:30;27.67;;;2.80;;
80584;SDS011;70137;56.482;9.154;2024-03-23T04:03:55;29.45;;;4.22;;
80584;SDS011;70137;56.482;9.154;2024-03-23T04:06:21;23.77;;;3.30;;
80584;SDS011;70137;56.482;9.154;2024-03-23T04:08:46;24.58;;;2.72;;
80584;SDS011;70137;56.482;9.154;2024-03-23T04:11:11;23.88;;;3.10;;
80584;SDS011;70137;56.482;9.154;2024-03-23T04:13:37;29.08;;;2.75;;
80584;SDS011;70137;56.482;9.154;2024-03-23T04:16:02;23.65;;;2.97;;
80584;SDS011;70137;56.482;9.154;2024-03-23T04:18:28;27.38;;;2.80;;
80584;SDS011;70137;56.482;9.154;2024-03-23T04:20:54;19.48;;;2.63;;
80584;SDS011;70137;56.482;9.154;2024-03-23T04:23:19;22.38;;;3.45;;
80584;SDS011;70137;56.482;9.154;2024-03-23T04:25:46;21.10;;;3.25;;
80584;SDS011;70137;56.482;9.154;2024-03-23T04:28:11;20.48;;;3.20;;
80584;SDS011;70137;56.482;9.154;2024-03-23T04:30:36;29.50;;;3.33;;
80584;SDS011;70137;56.482;9.154;2024-03-23T04:33:02;28.50;;;3.15;;
80584;SDS011;70137;56.482;9.154;2024-03-23T04:35:27;18.88;;;2.47;;
80584;SDS011;70137;56.482;9.154;2024-03-23T04:37:53;20.17;;;2.70;;
80584;SDS011;70137;56.482;9.154;2024-03-23T04:40:19;25.00;;;2.90;;
80584;SDS011;70137;56.482;9.154;2024-03-23T04:42:44;28.48;;;3.20;;
80584;SDS011;70137;56.482;9.154;2024-03-23T04:45:10;29.00;;;2.72;;
80584;SDS011;70137;56.482;9.154;2024-03-23T04:47:35;25.85;;;2.95;;
80584;SDS011;70137;56.482;9.154;2024-03-23T04:50:02;20.80;;;2.90;;
80584;SDS011;70137;56.482;9.154;2024-03-23T04:52:28;27.70;;;2.97;;
80584;SDS011;70137;56.482;9.154;2024-03-23T04:54:54;23.23;;;3.13;;
80584;SDS011;70137;56.482;9.154;2024-03-23T04:57:19;27.52;;;3.47;;
80584;SDS011;70137;56.482;9.154;2024-03-23T04:59:44;27.42;;;3.05;;
80584;SDS011;70137;56.482;9.154;2024-03-23T05:02:10;23.38;;;3.22;;
80584;SDS011;70137;56.482;9.154;2024-03-23T05:04:35;22.00;;;2.97;;
80584;SDS011;70137;56.482;9.154;2024-03-23T05:07:02;29.33;;;3.55;;
80584;SDS011;70137;56.482;9.154;2024-03-23T05:09:27;26.38;;;3.35;;
80584;SDS011;70137;56.482;9.154;2024-03-23T05:11:55;30.92;;;3.15;;
80584;SDS011;70137;56.482;9.154;2024-03-23T05:14:21;30.63;;;2.97;;
80584;SDS011;70137;56.482;9.154;2024-03-23T05:16:46;31.65;;;3.40;;
80584;SDS011;70137;56.482;9.154;2024-03-23T05:19:11;23.63;;;2.88;;
80584;SDS011;70137;56.482;9.154;2024-03-23T05:21:37;25.75;;;2.83;;
80584;SDS011;70137;56.482;9.154;2024-03-23T05:24:02;30.38;;;3.33;;
80584;SDS011;70137;56.482;9.154;2024-03-23T05:26:28;26.90;;;3.03;;
80584;SDS011;70137;56.482;9.154;2024-03-23T05:28:53;27.45;;;3.03;;
80584;SDS011;70137;56.482;9.154;2024-03-23T05:31:37;25.75;;;3.72;;
80584;SDS011;70137;56.482;9.154;2024-03-23T05:34:02;25.02;;;3.95;;
80584;SDS011;70137;56.482;9.154;2024-03-23T05:36:28;25.75;;;3.28;;
80584;SDS011;70137;56.482;9.154;2024-03-23T05:38:54;26.85;;;3.58;;
80584;SDS011;70137;56.482;9.154;2024-03-23T05:41:19;18.85;;;2.85;;
80584;SDS011;70137;56.482;9.154;2024-03-23T05:43:45;23.52;;;3.20;;
80584;SDS011;70137;56.482;9.154;2024-03-23T05:46:10;29.17;;;3.90;;
80584;SDS011;70137;56.482;9.154;2024-03-23T05:48:36;26.75;;;3.25;;
80584;SDS011;70137;56.482;9.154;2024-03-23T05:51:01;22.65;;;3.33;;
80584;SDS011;70137;56.482;9.154;2024-03-23T05:53:27;26.13;;;3.60;;
80584;SDS011;70137;56.482;9.154;2024-03-23T05:56:00;21.48;;;2.80;;
80584;SDS011;70137;56.482;9.154;2024-03-23T05:58:30;27.90;;;3.13;;
80584;SDS011;70137;56.482;9.154;2024-03-23T06:01:01;21.17;;;3.00;;
80584;SDS011;70137;56.482;9.154;2024-03-23T06:03:27;27.95;;;4.10;;
80584;SDS011;70137;56.482;9.154;2024-03-23T06:05:54;28.60;;;3.53;;
80584;SDS011;70137;56.482;9.154;2024-03-23T06:08:19;20.27;;;2.78;;
80584;SDS011;70137;56.482;9.154;2024-03-23T06:10:45;20.60;;;3.63;;
80584;SDS011;70137;56.482;9.154;2024-03-23T06:13:11;29.60;;;4.15;;
80584;SDS011;70137;56.482;9.154;2024-03-23T06:15:37;30.65;;;3.72;;
80584;SDS011;70137;56.482;9.154;2024-03-23T06:18:03;22.63;;;3.00;;
80584;SDS011;70137;56.482;9.154;2024-03-23T06:20:33;27.02;;;3.63;;
80584;SDS011;70137;56.482;9.154;2024-03-23T06:22:59;23.08;;;2.88;;
80584;SDS011;70137;56.482;9.154;2024-03-23T06:25:24;17.70;;;3.13;;
80584;SDS011;70137;56.482;9.154;2024-03-23T06:27:50;22.08;;;2.90;;
80584;SDS011;70137;56.482;9.154;2024-03-23T06:30:15;25.65;;;3.45;;
80584;SDS011;70137;56.482;9.154;2024-03-23T06:32:40;29.13;;;3.95;;
80584;SDS011;70137;56.482;9.154;2024-03-23T06:35:06;28.08;;;3.40;;
80584;SDS011;70137;56.482;9.154;2024-03-23T06:37:37;25.67;;;3.15;;
80584;SDS011;70137;56.482;9.154;2024-03-23T06:40:04;22.85;;;2.97;;
80584;SDS011;70137;56.482;9.154;2024-03-23T06:42:33;22.15;;;2.83;;
80584;SDS011;70137;56.482;9.154;2024-03-23T06:44:59;22.40;;;3.78;;
80584;SDS011;70137;56.482;9.154;2024-03-23T06:47:24;18.77;;;2.13;;
80584;SDS011;70137;56.482;9.154;2024-03-23T06:49:50;26.88;;;2.85;;
80584;SDS011;70137;56.482;9.154;2024-03-23T06:52:16;18.02;;;2.85;;
80584;SDS011;70137;56.482;9.154;2024-03-23T06:54:41;25.65;;;3.10;;
80584;SDS011;70137;56.482;9.154;2024-03-23T06:57:06;19.55;;;2.40;;
80584;SDS011;70137;56.482;9.154;2024-03-23T06:59:32;16.15;;;2.10;;
80584;SDS011;70137;56.482;9.154;2024-03-23T07:01:57;18.35;;;2.53;;
80584;SDS011;70137;56.482;9.154;2024-03-23T07:04:23;20.00;;;3.95;;
80584;SDS011;70137;56.482;9.154;2024-03-23T07:06:48;26.08;;;2.80;;
80584;SDS011;70137;56.482;9.154;2024-03-23T07:09:13;15.82;;;2.40;;
80584;SDS011;70137;56.482;9.154;2024-03-23T07:11:38;21.42;;;2.83;;
80584;SDS011;70137;56.482;9.154;2024-03-23T07:14:04;19.35;;;3.10;;
80584;SDS011;70137;56.482;9.154;2024-03-23T07:16:29;21.55;;;2.88;;
80584;SDS011;70137;56.482;9.154;2024-03-23T07:18:55;17.20;;;2.38;;
80584;SDS011;70137;56.482;9.154;2024-03-23T07:21:20;21.95;;;3.85;;
80584;SDS011;70137;56.482;9.154;2024-03-23T07:23:47;17.65;;;2.90;;
80584;SDS011;70137;56.482;9.154;2024-03-23T07:26:12;16.00;;;2.63;;
80584;SDS011;70137;56.482;9.154;2024-03-23T07:28:38;24.33;;;2.85;;
80584;SDS011;70137;56.482;9.154;2024-03-23T07:31:08;16.38;;;2.55;;
80584;SDS011;70137;56.482;9.154;2024-03-23T07:33:35;16.63;;;3.42;;
80584;SDS011;70137;56.482;9.154;2024-03-23T07:36:01;11.38;;;1.77;;
80584;SDS011;70137;56.482;9.154;2024-03-23T07:38:27;19.60;;;2.38;;
80584;SDS011;70137;56.482;9.154;2024-03-23T07:41:09;19.88;;;2.40;;
80584;SDS011;70137;56.482;9.154;2024-03-23T07:43:36;23.65;;;2.47;;
80584;SDS011;70137;56.482;9.154;2024-03-23T07:46:02;13.32;;;2.42;;
80584;SDS011;70137;56.482;9.154;2024-03-23T07:48:29;24.92;;;2.60;;
80584;SDS011;70137;56.482;9.154;2024-03-23T07:51:05;24.55;;;2.83;;
80584;SDS011;70137;56.482;9.154;2024-03-23T07:53:32;21.55;;;2.40;;
80584;SDS011;70137;56.482;9.154;2024-03-23T07:55:59;19.08;;;2.70;;
80584;SDS011;70137;56.482;9.154;2024-03-23T07:58:27;24.58;;;2.60;;
80584;SDS011;70137;56.482;9.154;2024-03-23T08:00:53;19.23;;;2.30;;
80584;SDS011;70137;56.482;9.154;2024-03-23T08:03:19;17.58;;;2.50;;
80584;SDS011;70137;56.482;9.154;2024-03-23T08:05:45;22.10;;;2.80;;
80584;SDS011;70137;56.482;9.154;2024-03-23T08:08:10;14.23;;;2.30;;
80584;SDS011;70137;56.482;9.154;2024-03-23T08:10:36;18.60;;;2.10;;
80584;SDS011;70137;56.482;9.154;2024-03-23T08:13:02;13.98;;;1.75;;
80584;SDS011;70137;56.482;9.154;2024-03-23T08:15:30;15.50;;;2.13;;
80584;SDS011;70137;56.482;9.154;2024-03-23T08:17:57;13.85;;;1.60;;
80584;SDS011;70137;56.482;9.154;2024-03-23T08:20:23;9.70;;;1.95;;
80584;SDS011;70137;56.482;9.154;2024-03-23T08:22:48;14.00;;;1.63;;
80584;SDS011;70137;56.482;9.154;2024-03-23T08:25:13;14.15;;;2.13;;
80584;SDS011;70137;56.482;9.154;2024-03-23T08:27:39;16.27;;;2.00;;
80584;SDS011;70137;56.482;9.154;2024-03-23T08:30:04;16.92;;;2.78;;
80584;SDS011;70137;56.482;9.154;2024-03-23T08:32:30;16.30;;;2.03;;
80584;SDS011;70137;56.482;9.154;2024-03-23T08:34:55;18.45;;;2.40;;
80584;SDS011;70137;56.482;9.154;2024-03-23T08:37:21;14.25;;;2.13;;
80584;SDS011;70137;56.482;9.154;2024-03-23T08:39:46;12.90;;;2.15;;
80584;SDS011;70137;56.482;9.154;2024-03-23T08:42:12;13.55;;;2.75;;
80584;SDS011;70137;56.482;9.154;2024-03-23T08:44:37;13.02;;;2.13;;
80584;SDS011;70137;56.482;9.154;2024-03-23T08:47:02;14.88;;;1.77;;
80584;SDS011;70137;56.482;9.154;2024-03-23T08:49:28;14.30;;;2.53;;
80584;SDS011;70137;56.482;9.154;2024-03-23T08:51:53;13.65;;;1.90;;
80584;SDS011;70137;56.482;9.154;2024-03-23T08:54:19;12.27;;;1.90;;
80584;SDS011;70137;56.482;9.154;2024-03-23T08:56:45;8.32;;;1.67;;
80584;SDS011;70137;56.482;9.154;2024-03-23T08:59:11;12.07;;;2.10;;
80584;SDS011;70137;56.482;9.154;2024-03-23T09:01:36;16.17;;;2.22;;
80584;SDS011;70137;56.482;9.154;2024-03-23T09:04:03;15.48;;;2.45;;
80584;SDS011;70137;56.482;9.154;2024-03-23T09:06:29;10.18;;;1.77;;
80584;SDS011;70137;56.482;9.154;2024-03-23T09:08:54;11.68;;;1.77;;
80584;SDS011;70137;56.482;9.154;2024-03-23T09:11:20;8.40;;;1.70;;
80584;SDS011;70137;56.482;9.154;2024-03-23T09:13:45;12.55;;;1.50;;
80584;SDS011;70137;56.482;9.154;2024-03-23T09:16:11;14.43;;;1.77;;
80584;SDS011;70137;56.482;9.154;2024-03-23T09:18:36;10.93;;;2.40;;
80584;SDS011;70137;56.482;9.154;2024-03-23T09:21:02;10.57;;;1.95;;
80584;SDS011;70137;56.482;9.154;2024-03-23T09:23:29;17.15;;;2.13;;
80584;SDS011;70137;56.482;9.154;2024-03-23T09:25:54;9.70;;;1.70;;
80584;SDS011;70137;56.482;9.154;2024-03-23T09:28:20;15.98;;;1.83;;
80584;SDS011;70137;56.482;9.154;2024-03-23T09:30:45;12.63;;;1.70;;
80584;SDS011;70137;56.482;9.154;2024-03-23T09:33:11;10.82;;;1.60;;
80584;SDS011;70137;56.482;9.154;2024-03-23T09:35:41;11.32;;;1.75;;
80584;SDS011;70137;56.482;9.154;2024-03-23T09:38:07;8.45;;;1.58;;
80584;SDS011;70137;56.482;9.154;2024-03-23T09:40:34;10.93;;;1.50;;
80584;SDS011;70137;56.482;9.154;2024-03-23T09:43:00;13.73;;;1.85;;
80584;SDS011;70137;56.482;9.154;2024-03-23T09:45:28;9.35;;;1.42;;
80584;SDS011;70137;56.482;9.154;2024-03-23T09:47:54;8.82;;;1.30;;
80584;SDS011;70137;56.482;9.154;2024-03-23T09:50:20;8.30;;;1.42;;
80584;SDS011;70137;56.482;9.154;2024-03-23T09:52:46;14.50;;;2.50;;
80584;SDS011;70137;56.482;9.154;2024-03-23T09:55:11;12.32;;;1.70;;
80584;SDS011;70137;56.482;9.154;2024-03-23T09:57:37;8.70;;;1.45;;
80584;SDS011;70137;56.482;9.154;2024-03-23T10:00:03;5.65;;;1.35;;
80584;SDS011;70137;56.482;9.154;2024-03-23T10:02:28;12.35;;;1.30;;
80584;SDS011;70137;56.482;9.154;2024-03-23T10:04:54;9.73;;;1.92;;
80584;SDS011;70137;56.482;9.154;2024-03-23T10:07:20;6.68;;;1.30;;
80584;SDS011;70137;56.482;9.154;2024-03-23T10:09:47;6.95;;;1.30;;
80584;SDS011;70137;56.482;9.154;2024-03-23T10:12:13;6.03;;;1.35;;
80584;SDS011;70137;56.482;9.154;2024-03-23T10:14:43;7.30;;;1.48;;
80584;SDS011;70137;56.482;9.154;2024-03-23T10:17:15;9.63;;;1.63;;
80584;SDS011;70137;56.482;9.154;2024-03-23T10:19:47;11.30;;;1.63;;
80584;SDS011;70137;56.482;9.154;2024-03-23T10:22:20;12.20;;;1.75;;
80584;SDS011;70137;56.482;9.154;2024-03-23T10:24:47;8.00;;;1.10;;
80584;SDS011;70137;56.482;9.154;2024-03-23T10:27:16;6.82;;;1.50;;
80584;SDS011;70137;56.482;9.154;2024-03-23T10:29:46;10.95;;;1.65;;
80584;SDS011;70137;56.482;9.154;2024-03-23T10:32:12;6.88;;;1.40;;
80584;SDS011;70137;56.482;9.154;2024-03-23T10:34:38;10.48;;;1.52;;
80584;SDS011;70137;56.482;9.154;2024-03-23T10:37:04;6.57;;;0.90;;
80584;SDS011;70137;56.482;9.154;2024-03-23T10:42:08;12.27;;;1.45;;
80584;SDS011;70137;56.482;9.154;2024-03-23T10:44:38;10.75;;;1.85;;
80584;SDS011;70137;56.482;9.154;2024-03-23T10:47:04;16.35;;;2.15;;
80584;SDS011;70137;56.482;9.154;2024-03-23T10:49:34;12.43;;;2.38;;
80584;SDS011;70137;56.482;9.154;2024-03-23T10:52:01;14.30;;;2.75;;
80584;SDS011;70137;56.482;9.154;2024-03-23T10:54:28;11.57;;;1.63;;
80584;SDS011;70137;56.482;9.154;2024-03-23T10:59:47;14.38;;;2.05;;
80584;SDS011;70137;56.482;9.154;2024-03-23T11:02:19;16.10;;;2.63;;
80584;SDS011;70137;56.482;9.154;2024-03-23T11:04:45;10.48;;;1.80;;
80584;SDS011;70137;56.482;9.154;2024-03-23T11:09:51;17.15;;;2.30;;
80584;SDS011;70137;56.482;9.154;2024-03-23T11:12:25;16.70;;;2.10;;
80584;SDS011;70137;56.482;9.154;2024-03-23T11:15:02;12.23;;;2.05;;
80584;SDS011;70137;56.482;9.154;2024-03-23T11:17:29;13.75;;;2.13;;
80584;SDS011;70137;56.482;9.154;2024-03-23T11:19:58;15.88;;;2.53;;
80584;SDS011;70137;56.482;9.154;2024-03-23T11:27:45;13.73;;;1.67;;
80584;SDS011;70137;56.482;9.154;2024-03-23T11:32:41;11.77;;;1.95;;
80584;SDS011;70137;56.482;9.154;2024-03-23T11:40:30;6.43;;;1.20;;
80584;SDS011;70137;56.482;9.154;2024-03-23T11:42:57;12.23;;;1.48;;
80584;SDS011;70137;56.482;9.154;2024-03-23T11:45:24;10.55;;;1.50;;
80584;SDS011;70137;56.482;9.154;2024-03-23T11:48:01;7.95;;;1.83;;
80584;SDS011;70137;56.482;9.154;2024-03-23T11:50:29;8.40;;;1.40;;
80584;SDS011;70137;56.482;9.154;2024-03-23T11:53:14;14.10;;;1.95;;
80584;SDS011;70137;56.482;9.154;2024-03-23T11:55:45;9.55;;;1.30;;
80584;SDS011;70137;56.482;9.154;2024-03-23T11:58:11;7.78;;;1.48;;
80584;SDS011;70137;56.482;9.154;2024-03-23T12:00:37;8.68;;;1.38;;
80584;SDS011;70137;56.482;9.154;2024-03-23T12:03:03;10.13;;;1.63;;
80584;SDS011;70137;56.482;9.154;2024-03-23T12:05:30;9.70;;;1.33;;
80584;SDS011;70137;56.482;9.154;2024-03-23T12:08:19;5.20;;;1.70;;
80584;SDS011;70137;56.482;9.154;2024-03-23T12:10:52;8.20;;;1.35;;
80584;SDS011;70137;56.482;9.154;2024-03-23T12:13:19;6.82;;;1.17;;
80584;SDS011;70137;56.482;9.154;2024-03-23T12:15:46;6.13;;;1.30;;
80584;SDS011;70137;56.482;9.154;2024-03-23T12:18:13;8.23;;;1.40;;
80584;SDS011;70137;56.482;9.154;2024-03-23T12:20:39;10.35;;;1.70;;
80584;SDS011;70137;56.482;9.154;2024-03-23T12:23:05;9.55;;;1.52;;
80584;SDS011;70137;56.482;9.154;2024-03-23T12:25:31;8.20;;;1.90;;
80584;SDS011;70137;56.482;9.154;2024-03-23T12:28:00;11.20;;;1.73;;
80584;SDS011;70137;56.482;9.154;2024-03-23T12:30:25;6.03;;;1.10;;
80584;SDS011;70137;56.482;9.154;2024-03-23T12:32:51;10.82;;;1.45;;
80584;SDS011;70137;56.482;9.154;2024-03-23T12:35:16;6.22;;;1.15;;
80584;SDS011;70137;56.482;9.154;2024-03-23T12:37:41;10.07;;;1.20;;
80584;SDS011;70137;56.482;9.154;2024-03-23T12:40:08;6.20;;;1.05;;
80584;SDS011;70137;56.482;9.154;2024-03-23T12:42:34;6.00;;;1.23;;
80584;SDS011;70137;56.482;9.154;2024-03-23T12:44:59;5.85;;;1.35;;
80584;SDS011;70137;56.482;9.154;2024-03-23T12:47:24;8.98;;;1.10;;
80584;SDS011;70137;56.482;9.154;2024-03-23T12:49:50;9.75;;;1.65;;
80584;SDS011;70137;56.482;9.154;2024-03-23T12:52:17;9.43;;;1.52;;
80584;SDS011;70137;56.482;9.154;2024-03-23T12:54:42;11.32;;;1.90;;
80584;SDS011;70137;56.482;9.154;2024-03-23T12:57:08;11.43;;;1.90;;
80584;SDS011;70137;56.482;9.154;2024-03-23T12:59:33;13.90;;;1.67;;
80584;SDS011;70137;56.482;9.154;2024-03-23T13:02:00;5.03;;;1.05;;
80584;SDS011;70137;56.482;9.154;2024-03-23T13:04:26;6.68;;;0.80;;
80584;SDS011;70137;56.482;9.154;2024-03-23T13:06:51;4.88;;;0.85;;
80584;SDS011;70137;56.482;9.154;2024-03-23T13:09:16;10.00;;;1.55;;
80584;SDS011;70137;56.482;9.154;2024-03-23T13:11:42;10.57;;;1.63;;
80584;SDS011;70137;56.482;9.154;2024-03-23T13:14:07;13.05;;;1.65;;
80584;SDS011;70137;56.482;9.154;2024-03-23T13:16:33;10.82;;;2.00;;
80584;SDS011;70137;56.482;9.154;2024-03-23T13:18:58;15.90;;;2.42;;
80584;SDS011;70137;56.482;9.154;2024-03-23T13:21:23;9.18;;;1.55;;
80584;SDS011;70137;56.482;9.154;2024-03-23T13:23:49;9.25;;;1.23;;
80584;SDS011;70137;56.482;9.154;2024-03-23T13:26:16;5.47;;;0.70;;
80584;SDS011;70137;56.482;9.154;2024-03-23T13:28:41;4.35;;;0.60;;
80584;SDS011;70137;56.482;9.154;2024-03-23T13:31:06;6.38;;;1.00;;
80584;SDS011;70137;56.482;9.154;2024-03-23T13:33:33;7.25;;;1.13;;
80584;SDS011;70137;56.482;9.154;2024-03-23T13:35:59;5.63;;;0.82;;
80584;SDS011;70137;56.482;9.154;2024-03-23T13:38:25;5.90;;;1.02;;
80584;SDS011;70137;56.482;9.154;2024-03-23T13:40:54;12.88;;;1.75;;
80584;SDS011;70137;56.482;9.154;2024-03-23T13:43:22;5.45;;;0.95;;
80584;SDS011;70137;56.482;9.154;2024-03-23T13:45:48;8.70;;;1.20;;
80584;SDS011;70137;56.482;9.154;2024-03-23T13:48:16;10.90;;;2.20;;
80584;SDS011;70137;56.482;9.154;2024-03-23T13:50:43;8.38;;;1.65;;
80584;SDS011;70137;56.482;9.154;2024-03-23T13:53:08;7.10;;;1.23;;
80584;SDS011;70137;56.482;9.154;2024-03-23T13:55:34;10.43;;;1.23;;
80584;SDS011;70137;56.482;9.154;2024-03-23T13:57:59;9.95;;;1.50;;
80584;SDS011;70137;56.482;9.154;2024-03-23T14:00:24;7.10;;;1.20;;
80584;SDS011;70137;56.482;9.154;2024-03-23T14:02:50;4.68;;;1.30;;
80584;SDS011;70137;56.482;9.154;2024-03-23T14:05:15;9.07;;;1.98;;
80584;SDS011;70137;56.482;9.154;2024-03-23T14:07:41;12.57;;;2.05;;
80584;SDS011;70137;56.482;9.154;2024-03-23T14:10:06;9.13;;;1.52;;
80584;SDS011;70137;56.482;9.154;2024-03-23T14:12:32;11.80;;;1.45;;
80584;SDS011;70137;56.482;9.154;2024-03-23T14:14:58;13.25;;;1.85;;
80584;SDS011;70137;56.482;9.154;2024-03-23T14:17:23;10.45;;;1.67;;
80584;SDS011;70137;56.482;9.154;2024-03-23T14:19:51;13.18;;;1.95;;
80584;SDS011;70137;56.482;9.154;2024-03-23T14:22:16;14.73;;;2.40;;
80584;SDS011;70137;56.482;9.154;2024-03-23T14:24:44;10.75;;;2.40;;
80584;SDS011;70137;56.482;9.154;2024-03-23T14:27:10;7.32;;;1.77;;
80584;SDS011;70137;56.482;9.154;2024-03-23T14:29:35;13.63;;;1.88;;
80584;SDS011;70137;56.482;9.154;2024-03-23T14:32:00;9.32;;;1.75;;
80584;SDS011;70137;56.482;9.154;2024-03-23T14:34:26;14.20;;;1.90;;
80584;SDS011;70137;56.482;9.154;2024-03-23T14:36:53;10.00;;;1.60;;
80584;SDS011;70137;56.482;9.154;2024-03-23T14:39:22;11.75;;;2.03;;
80584;SDS011;70137;56.482;9.154;2024-03-23T14:41:48;12.43;;;2.17;;
80584;SDS011;70137;56.482;9.154;2024-03-23T14:44:15;16.67;;;1.73;;
80584;SDS011;70137;56.482;9.154;2024-03-23T14:46:40;9.40;;;1.90;;
80584;SDS011;70137;56.482;9.154;2024-03-23T14:49:06;11.52;;;1.58;;
80584;SDS011;70137;56.482;9.154;2024-03-23T14:51:31;9.50;;;1.55;;
80584;SDS011;70137;56.482;9.154;2024-03-23T14:53:58;10.90;;;1.80;;
80584;SDS011;70137;56.482;9.154;2024-03-23T14:56:23;11.35;;;1.63;;
80584;SDS011;70137;56.482;9.154;2024-03-23T14:58:52;16.50;;;1.92;;
80584;SDS011;70137;56.482;9.154;2024-03-23T15:01:17;22.95;;;2.00;;
80584;SDS011;70137;56.482;9.154;2024-03-23T15:03:43;14.20;;;2.05;;
80584;SDS011;70137;56.482;9.154;2024-03-23T15:06:09;9.80;;;1.77;;
80584;SDS011;70137;56.482;9.154;2024-03-23T15:08:35;13.68;;;1.55;;
80584;SDS011;70137;56.482;9.154;2024-03-23T15:11:02;14.30;;;1.85;;
80584;SDS011;70137;56.482;9.154;2024-03-23T15:13:31;16.20;;;2.22;;
80584;SDS011;70137;56.482;9.154;2024-03-23T15:15:57;13.45;;;2.10;;
80584;SDS011;70137;56.482;9.154;2024-03-23T15:18:22;13.93;;;2.05;;
80584;SDS011;70137;56.482;9.154;2024-03-23T15:20:54;15.13;;;1.95;;
80584;SDS011;70137;56.482;9.154;2024-03-23T15:23:20;15.13;;;2.33;;
80584;SDS011;70137;56.482;9.154;2024-03-23T15:25:53;14.70;;;1.98;;
80584;SDS011;70137;56.482;9.154;2024-03-23T15:28:28;17.08;;;1.98;;
80584;SDS011;70137;56.482;9.154;2024-03-23T15:31:05;15.02;;;1.95;;
80584;SDS011;70137;56.482;9.154;2024-03-23T15:33:31;13.82;;;2.38;;
80584;SDS011;70137;56.482;9.154;2024-03-23T15:36:03;11.10;;;2.00;;
80584;SDS011;70137;56.482;9.154;2024-03-23T15:38:30;13.20;;;1.45;;
80584;SDS011;70137;56.482;9.154;2024-03-23T15:40:56;14.75;;;2.20;;
80584;SDS011;70137;56.482;9.154;2024-03-23T15:43:22;18.27;;;2.28;;